sensor_id;sensor_type;location;lat;lon;timestamp;P1;durP1;ratioP1;P2;durP2;ratioP2
63534;SDS011;55128;50.230;18.944;2022-12-29T00:00:25;8.15;;;4.65;;
63534;SDS011;55128;50.230;18.944;2022-12-29T00:05:26;10.20;;;4.50;;
63534;SDS011;55128;50.230;18.944;2022-12-29T00:10:26;9.97;;;4.67;;
63534;SDS011;55128;50.230;18.944;2022-12-29T00:15:26;8.53;;;4.27;;
63534;SDS011;55128;50.230;18.944;2022-12-29T00:20:39;9.15;;;4.65;;
63534;SDS011;55128;50.230;18.944;2022-12-29T00:25:58;10.57;;;4.68;;
63534;SDS011;55128;50.230;18.944;2022-12-29T00:31:22;10.93;;;4.57;;
63534;SDS011;55128;50.230;18.944;2022-12-29T00:36:41;11.57;;;5.72;;
63534;SDS011;55128;50.230;18.944;2022-12-29T00:41:43;12.50;;;5.22;;
63534;SDS011;55128;50.230;18.944;2022-12-29T00:47:03;12.93;;;5.40;;
63534;SDS011;55128;50.230;18.944;2022-12-29T00:52:08;12.27;;;5.88;;
63534;SDS011;55128;50.230;18.944;2022-12-29T00:57:11;12.23;;;6.13;;
63534;SDS011;55128;50.230;18.944;2022-12-29T01:02:12;15.23;;;6.65;;
63534;SDS011;55128;50.230;18.944;2022-12-29T01:07:12;11.88;;;6.55;;
63534;SDS011;55128;50.230;18.944;2022-12-29T01:12:13;16.73;;;7.40;;
63534;SDS011;55128;50.230;18.944;2022-12-29T01:17:13;14.32;;;7.78;;
63534;SDS011;55128;50.230;18.944;2022-12-29T01:22:14;16.00;;;7.57;;
63534;SDS011;55128;50.230;18.944;2022-12-29T01:27:14;14.80;;;8.53;;
63534;SDS011;55128;50.230;18.944;2022-12-29T01:32:14;15.05;;;8.25;;
63534;SDS011;55128;50.230;18.944;2022-12-29T01:37:15;14.37;;;7.73;;
63534;SDS011;55128;50.230;18.944;2022-12-29T01:42:16;15.73;;;8.53;;
63534;SDS011;55128;50.230;18.944;2022-12-29T01:52:35;18.27;;;8.50;;
63534;SDS011;55128;50.230;18.944;2022-12-29T01:57:39;14.45;;;7.65;;
63534;SDS011;55128;50.230;18.944;2022-12-29T02:02:45;12.82;;;6.80;;
63534;SDS011;55128;50.230;18.944;2022-12-29T02:07:50;16.15;;;7.22;;
63534;SDS011;55128;50.230;18.944;2022-12-29T02:12:52;14.07;;;6.80;;
63534;SDS011;55128;50.230;18.944;2022-12-29T02:18:06;10.70;;;5.40;;
63534;SDS011;55128;50.230;18.944;2022-12-29T02:23:30;12.40;;;6.13;;
63534;SDS011;55128;50.230;18.944;2022-12-29T02:50:39;11.48;;;5.68;;
63534;SDS011;55128;50.230;18.944;2022-12-29T02:55:49;9.90;;;5.35;;
63534;SDS011;55128;50.230;18.944;2022-12-29T03:06:38;13.60;;;6.13;;
63534;SDS011;55128;50.230;18.944;2022-12-29T03:17:33;8.30;;;4.22;;
63534;SDS011;55128;50.230;18.944;2022-12-29T03:22:41;7.88;;;4.57;;
63534;SDS011;55128;50.230;18.944;2022-12-29T03:28:29;10.88;;;4.75;;
63534;SDS011;55128;50.230;18.944;2022-12-29T03:33:13;9.80;;;4.50;;
63534;SDS011;55128;50.230;18.944;2022-12-29T03:38:19;8.15;;;4.47;;
63534;SDS011;55128;50.230;18.944;2022-12-29T03:43:25;6.28;;;4.13;;
63534;SDS011;55128;50.230;18.944;2022-12-29T03:48:26;7.90;;;4.35;;
63534;SDS011;55128;50.230;18.944;2022-12-29T03:53:27;6.67;;;4.20;;
63534;SDS011;55128;50.230;18.944;2022-12-29T03:58:27;8.40;;;4.80;;
63534;SDS011;55128;50.230;18.944;2022-12-29T04:03:27;7.25;;;4.10;;
63534;SDS011;55128;50.230;18.944;2022-12-29T04:08:28;7.35;;;4.88;;
63534;SDS011;55128;50.230;18.944;2022-12-29T04:13:28;8.38;;;4.60;;
63534;SDS011;55128;50.230;18.944;2022-12-29T04:18:29;7.93;;;5.28;;
63534;SDS011;55128;50.230;18.944;2022-12-29T04:23:30;11.40;;;5.70;;
63534;SDS011;55128;50.230;18.944;2022-12-29T04:28:33;9.32;;;5.70;;
63534;SDS011;55128;50.230;18.944;2022-12-29T04:33:33;10.68;;;6.68;;
63534;SDS011;55128;50.230;18.944;2022-12-29T04:38:33;11.10;;;7.20;;
63534;SDS011;55128;50.230;18.944;2022-12-29T04:43:34;10.65;;;5.88;;
63534;SDS011;55128;50.230;18.944;2022-12-29T04:48:35;9.70;;;5.88;;
63534;SDS011;55128;50.230;18.944;2022-12-29T04:53:35;10.68;;;5.97;;
63534;SDS011;55128;50.230;18.944;2022-12-29T04:58:36;13.70;;;6.18;;
63534;SDS011;55128;50.230;18.944;2022-12-29T05:03:36;11.45;;;6.10;;
63534;SDS011;55128;50.230;18.944;2022-12-29T05:08:37;9.68;;;6.63;;
63534;SDS011;55128;50.230;18.944;2022-12-29T05:13:37;14.67;;;7.87;;
63534;SDS011;55128;50.230;18.944;2022-12-29T05:18:37;12.57;;;8.67;;
63534;SDS011;55128;50.230;18.944;2022-12-29T05:23:38;11.13;;;7.00;;
63534;SDS011;55128;50.230;18.944;2022-12-29T05:28:38;10.90;;;6.43;;
63534;SDS011;55128;50.230;18.944;2022-12-29T05:33:39;12.98;;;6.63;;
63534;SDS011;55128;50.230;18.944;2022-12-29T05:38:39;13.48;;;7.35;;
63534;SDS011;55128;50.230;18.944;2022-12-29T05:43:39;13.77;;;8.15;;
63534;SDS011;55128;50.230;18.944;2022-12-29T05:48:40;15.35;;;10.77;;
63534;SDS011;55128;50.230;18.944;2022-12-29T05:53:40;12.70;;;7.70;;
63534;SDS011;55128;50.230;18.944;2022-12-29T05:58:40;12.30;;;7.90;;
63534;SDS011;55128;50.230;18.944;2022-12-29T06:03:41;16.38;;;9.27;;
63534;SDS011;55128;50.230;18.944;2022-12-29T06:08:42;13.60;;;8.77;;
63534;SDS011;55128;50.230;18.944;2022-12-29T06:13:42;11.50;;;6.53;;
63534;SDS011;55128;50.230;18.944;2022-12-29T06:18:42;16.35;;;7.22;;
63534;SDS011;55128;50.230;18.944;2022-12-29T06:23:43;11.68;;;6.35;;
63534;SDS011;55128;50.230;18.944;2022-12-29T06:28:43;16.85;;;8.63;;
63534;SDS011;55128;50.230;18.944;2022-12-29T06:33:43;14.87;;;7.40;;
63534;SDS011;55128;50.230;18.944;2022-12-29T06:38:44;14.32;;;7.57;;
63534;SDS011;55128;50.230;18.944;2022-12-29T06:43:44;12.17;;;5.97;;
63534;SDS011;55128;50.230;18.944;2022-12-29T06:48:44;11.03;;;5.73;;
63534;SDS011;55128;50.230;18.944;2022-12-29T06:53:45;9.38;;;4.72;;
63534;SDS011;55128;50.230;18.944;2022-12-29T06:58:45;10.90;;;5.33;;
63534;SDS011;55128;50.230;18.944;2022-12-29T07:03:45;9.63;;;5.10;;
63534;SDS011;55128;50.230;18.944;2022-12-29T07:08:46;13.40;;;6.00;;
63534;SDS011;55128;50.230;18.944;2022-12-29T07:13:46;11.47;;;5.80;;
63534;SDS011;55128;50.230;18.944;2022-12-29T07:18:47;10.55;;;5.55;;
63534;SDS011;55128;50.230;18.944;2022-12-29T07:23:47;10.95;;;5.50;;
63534;SDS011;55128;50.230;18.944;2022-12-29T07:28:48;11.63;;;6.47;;
63534;SDS011;55128;50.230;18.944;2022-12-29T07:33:48;11.07;;;5.72;;
63534;SDS011;55128;50.230;18.944;2022-12-29T07:38:49;14.75;;;6.35;;
63534;SDS011;55128;50.230;18.944;2022-12-29T07:43:49;9.27;;;5.53;;
63534;SDS011;55128;50.230;18.944;2022-12-29T07:48:49;12.30;;;5.47;;
63534;SDS011;55128;50.230;18.944;2022-12-29T07:53:50;12.20;;;6.15;;
63534;SDS011;55128;50.230;18.944;2022-12-29T07:58:50;11.65;;;5.50;;
63534;SDS011;55128;50.230;18.944;2022-12-29T08:03:50;11.90;;;6.22;;
63534;SDS011;55128;50.230;18.944;2022-12-29T08:08:51;11.35;;;6.07;;
63534;SDS011;55128;50.230;18.944;2022-12-29T08:13:51;14.90;;;6.27;;
63534;SDS011;55128;50.230;18.944;2022-12-29T08:18:52;14.32;;;6.28;;
63534;SDS011;55128;50.230;18.944;2022-12-29T08:23:52;14.23;;;6.80;;
63534;SDS011;55128;50.230;18.944;2022-12-29T08:28:53;14.30;;;7.18;;
63534;SDS011;55128;50.230;18.944;2022-12-29T08:33:55;14.27;;;7.32;;
63534;SDS011;55128;50.230;18.944;2022-12-29T08:38:56;16.00;;;8.57;;
63534;SDS011;55128;50.230;18.944;2022-12-29T08:43:56;16.90;;;8.63;;
63534;SDS011;55128;50.230;18.944;2022-12-29T08:48:57;16.90;;;9.57;;
63534;SDS011;55128;50.230;18.944;2022-12-29T08:53:58;16.90;;;8.88;;
63534;SDS011;55128;50.230;18.944;2022-12-29T08:58:58;15.93;;;9.90;;
63534;SDS011;55128;50.230;18.944;2022-12-29T09:03:59;15.97;;;10.17;;
63534;SDS011;55128;50.230;18.944;2022-12-29T09:08:59;14.93;;;9.10;;
63534;SDS011;55128;50.230;18.944;2022-12-29T09:13:59;15.00;;;9.33;;
63534;SDS011;55128;50.230;18.944;2022-12-29T09:19:00;15.85;;;9.98;;
63534;SDS011;55128;50.230;18.944;2022-12-29T09:24:01;17.65;;;9.90;;
63534;SDS011;55128;50.230;18.944;2022-12-29T09:29:01;14.55;;;9.75;;
63534;SDS011;55128;50.230;18.944;2022-12-29T09:34:02;16.10;;;11.30;;
63534;SDS011;55128;50.230;18.944;2022-12-29T09:39:02;16.90;;;10.63;;
63534;SDS011;55128;50.230;18.944;2022-12-29T09:49:15;14.73;;;9.75;;
63534;SDS011;55128;50.230;18.944;2022-12-29T09:54:28;15.48;;;10.02;;
63534;SDS011;55128;50.230;18.944;2022-12-29T09:59:40;15.43;;;9.45;;
63534;SDS011;55128;50.230;18.944;2022-12-29T10:04:42;14.02;;;9.27;;
63534;SDS011;55128;50.230;18.944;2022-12-29T10:25:39;13.52;;;9.15;;
63534;SDS011;55128;50.230;18.944;2022-12-29T10:30:41;15.57;;;10.35;;
63534;SDS011;55128;50.230;18.944;2022-12-29T10:35:44;13.95;;;9.50;;
63534;SDS011;55128;50.230;18.944;2022-12-29T10:40:56;14.38;;;8.10;;
63534;SDS011;55128;50.230;18.944;2022-12-29T10:46:08;13.17;;;8.17;;
63534;SDS011;55128;50.230;18.944;2022-12-29T10:51:20;12.57;;;7.93;;
63534;SDS011;55128;50.230;18.944;2022-12-29T11:07:06;12.98;;;7.93;;
63534;SDS011;55128;50.230;18.944;2022-12-29T11:17:30;14.80;;;8.90;;
63534;SDS011;55128;50.230;18.944;2022-12-29T11:22:43;18.15;;;9.45;;
63534;SDS011;55128;50.230;18.944;2022-12-29T11:28:04;17.48;;;9.27;;
63534;SDS011;55128;50.230;18.944;2022-12-29T11:33:16;15.88;;;9.07;;
63534;SDS011;55128;50.230;18.944;2022-12-29T11:38:25;14.02;;;8.90;;
63534;SDS011;55128;50.230;18.944;2022-12-29T11:43:37;16.27;;;9.57;;
63534;SDS011;55128;50.230;18.944;2022-12-29T11:48:39;14.75;;;8.70;;
63534;SDS011;55128;50.230;18.944;2022-12-29T11:53:47;14.57;;;8.90;;
63534;SDS011;55128;50.230;18.944;2022-12-29T11:58:52;13.65;;;8.43;;
63534;SDS011;55128;50.230;18.944;2022-12-29T12:09:19;12.43;;;8.32;;
63534;SDS011;55128;50.230;18.944;2022-12-29T12:14:28;12.00;;;7.65;;
63534;SDS011;55128;50.230;18.944;2022-12-29T12:19:36;13.00;;;7.75;;
63534;SDS011;55128;50.230;18.944;2022-12-29T12:24:55;13.70;;;8.23;;
63534;SDS011;55128;50.230;18.944;2022-12-29T12:35:21;11.88;;;7.38;;
63534;SDS011;55128;50.230;18.944;2022-12-29T12:40:33;15.77;;;8.95;;
63534;SDS011;55128;50.230;18.944;2022-12-29T12:45:59;12.63;;;8.57;;
63534;SDS011;55128;50.230;18.944;2022-12-29T12:56:32;15.85;;;8.90;;
63534;SDS011;55128;50.230;18.944;2022-12-29T13:01:51;18.70;;;11.07;;
63534;SDS011;55128;50.230;18.944;2022-12-29T13:07:15;19.00;;;11.50;;
63534;SDS011;55128;50.230;18.944;2022-12-29T13:12:30;19.23;;;11.32;;
63534;SDS011;55128;50.230;18.944;2022-12-29T13:29:17;18.27;;;10.02;;
63534;SDS011;55128;50.230;18.944;2022-12-29T13:34:56;14.23;;;9.48;;
63534;SDS011;55128;50.230;18.944;2022-12-29T13:40:14;19.42;;;10.85;;
63534;SDS011;55128;50.230;18.944;2022-12-29T13:45:24;19.63;;;10.88;;
63534;SDS011;55128;50.230;18.944;2022-12-29T13:50:29;18.50;;;11.30;;
63534;SDS011;55128;50.230;18.944;2022-12-29T13:56:22;21.65;;;12.10;;
63534;SDS011;55128;50.230;18.944;2022-12-29T14:06:22;17.58;;;10.80;;
63534;SDS011;55128;50.230;18.944;2022-12-29T14:11:34;18.95;;;10.73;;
63534;SDS011;55128;50.230;18.944;2022-12-29T14:16:37;16.52;;;11.55;;
63534;SDS011;55128;50.230;18.944;2022-12-29T14:21:38;18.85;;;11.07;;
63534;SDS011;55128;50.230;18.944;2022-12-29T14:26:40;17.80;;;11.07;;
63534;SDS011;55128;50.230;18.944;2022-12-29T14:31:40;19.52;;;11.60;;
63534;SDS011;55128;50.230;18.944;2022-12-29T14:41:42;20.17;;;11.65;;
63534;SDS011;55128;50.230;18.944;2022-12-29T14:46:44;20.52;;;11.60;;
63534;SDS011;55128;50.230;18.944;2022-12-29T14:51:47;20.58;;;11.20;;
63534;SDS011;55128;50.230;18.944;2022-12-29T14:56:51;19.42;;;11.20;;
63534;SDS011;55128;50.230;18.944;2022-12-29T15:01:54;20.25;;;12.25;;
63534;SDS011;55128;50.230;18.944;2022-12-29T15:12:22;16.70;;;10.20;;
63534;SDS011;55128;50.230;18.944;2022-12-29T15:17:34;16.45;;;10.23;;
63534;SDS011;55128;50.230;18.944;2022-12-29T15:22:34;17.90;;;10.70;;
63534;SDS011;55128;50.230;18.944;2022-12-29T15:27:35;19.05;;;11.43;;
63534;SDS011;55128;50.230;18.944;2022-12-29T15:32:45;21.05;;;11.50;;
63534;SDS011;55128;50.230;18.944;2022-12-29T15:37:47;18.92;;;11.32;;
63534;SDS011;55128;50.230;18.944;2022-12-29T15:48:00;15.02;;;9.35;;
63534;SDS011;55128;50.230;18.944;2022-12-29T15:53:01;14.27;;;8.55;;
63534;SDS011;55128;50.230;18.944;2022-12-29T15:58:04;16.17;;;9.98;;
63534;SDS011;55128;50.230;18.944;2022-12-29T16:03:05;16.48;;;8.90;;
63534;SDS011;55128;50.230;18.944;2022-12-29T16:13:40;17.00;;;9.77;;
63534;SDS011;55128;50.230;18.944;2022-12-29T16:18:42;16.85;;;9.82;;
63534;SDS011;55128;50.230;18.944;2022-12-29T16:23:46;18.25;;;10.15;;
63534;SDS011;55128;50.230;18.944;2022-12-29T16:28:51;20.95;;;11.13;;
63534;SDS011;55128;50.230;18.944;2022-12-29T16:33:56;24.52;;;12.43;;
63534;SDS011;55128;50.230;18.944;2022-12-29T16:39:18;21.05;;;12.52;;
63534;SDS011;55128;50.230;18.944;2022-12-29T16:44:29;20.73;;;11.45;;
63534;SDS011;55128;50.230;18.944;2022-12-29T16:49:31;19.75;;;11.63;;
63534;SDS011;55128;50.230;18.944;2022-12-29T16:54:34;22.05;;;11.98;;
63534;SDS011;55128;50.230;18.944;2022-12-29T16:59:37;20.57;;;12.53;;
63534;SDS011;55128;50.230;18.944;2022-12-29T17:04:42;23.48;;;14.25;;
63534;SDS011;55128;50.230;18.944;2022-12-29T17:09:42;25.75;;;15.18;;
63534;SDS011;55128;50.230;18.944;2022-12-29T17:14:44;24.27;;;14.43;;
63534;SDS011;55128;50.230;18.944;2022-12-29T17:19:48;26.88;;;15.68;;
63534;SDS011;55128;50.230;18.944;2022-12-29T17:24:51;27.05;;;15.30;;
63534;SDS011;55128;50.230;18.944;2022-12-29T17:29:57;25.77;;;14.88;;
63534;SDS011;55128;50.230;18.944;2022-12-29T17:35:00;31.13;;;17.30;;
63534;SDS011;55128;50.230;18.944;2022-12-29T17:40:00;24.92;;;14.55;;
63534;SDS011;55128;50.230;18.944;2022-12-29T17:45:02;24.95;;;16.13;;
63534;SDS011;55128;50.230;18.944;2022-12-29T17:50:03;27.13;;;16.30;;
63534;SDS011;55128;50.230;18.944;2022-12-29T17:55:04;24.35;;;15.68;;
63534;SDS011;55128;50.230;18.944;2022-12-29T18:00:04;27.55;;;15.98;;
63534;SDS011;55128;50.230;18.944;2022-12-29T18:05:08;26.45;;;16.30;;
63534;SDS011;55128;50.230;18.944;2022-12-29T18:10:16;31.33;;;15.80;;
63534;SDS011;55128;50.230;18.944;2022-12-29T18:20:23;28.27;;;16.35;;
63534;SDS011;55128;50.230;18.944;2022-12-29T18:25:25;24.40;;;15.57;;
63534;SDS011;55128;50.230;18.944;2022-12-29T18:30:25;33.60;;;20.55;;
63534;SDS011;55128;50.230;18.944;2022-12-29T18:35:33;33.45;;;20.70;;
63534;SDS011;55128;50.230;18.944;2022-12-29T18:40:37;35.10;;;22.15;;
63534;SDS011;55128;50.230;18.944;2022-12-29T18:45:38;29.67;;;17.40;;
63534;SDS011;55128;50.230;18.944;2022-12-29T18:50:38;33.15;;;19.98;;
63534;SDS011;55128;50.230;18.944;2022-12-29T18:55:39;38.55;;;24.35;;
63534;SDS011;55128;50.230;18.944;2022-12-29T19:00:39;30.20;;;17.33;;
63534;SDS011;55128;50.230;18.944;2022-12-29T19:05:40;34.83;;;20.67;;
63534;SDS011;55128;50.230;18.944;2022-12-29T19:10:42;30.50;;;17.52;;
63534;SDS011;55128;50.230;18.944;2022-12-29T19:15:43;49.63;;;31.30;;
63534;SDS011;55128;50.230;18.944;2022-12-29T19:20:46;37.25;;;22.20;;
63534;SDS011;55128;50.230;18.944;2022-12-29T19:25:47;29.95;;;16.15;;
63534;SDS011;55128;50.230;18.944;2022-12-29T19:30:49;29.52;;;15.55;;
63534;SDS011;55128;50.230;18.944;2022-12-29T19:35:50;32.17;;;16.48;;
63534;SDS011;55128;50.230;18.944;2022-12-29T19:40:51;30.50;;;17.92;;
63534;SDS011;55128;50.230;18.944;2022-12-29T19:45:52;29.30;;;17.48;;
63534;SDS011;55128;50.230;18.944;2022-12-29T19:50:52;23.73;;;12.93;;
63534;SDS011;55128;50.230;18.944;2022-12-29T19:55:53;17.88;;;12.18;;
63534;SDS011;55128;50.230;18.944;2022-12-29T20:00:53;19.08;;;10.65;;
63534;SDS011;55128;50.230;18.944;2022-12-29T20:05:53;17.43;;;10.70;;
63534;SDS011;55128;50.230;18.944;2022-12-29T20:10:58;17.53;;;11.37;;
63534;SDS011;55128;50.230;18.944;2022-12-29T20:16:04;16.92;;;10.68;;
63534;SDS011;55128;50.230;18.944;2022-12-29T20:21:08;16.45;;;11.15;;
63534;SDS011;55128;50.230;18.944;2022-12-29T20:26:12;18.88;;;11.27;;
63534;SDS011;55128;50.230;18.944;2022-12-29T20:31:19;19.38;;;10.55;;
63534;SDS011;55128;50.230;18.944;2022-12-29T20:36:29;16.05;;;10.50;;
63534;SDS011;55128;50.230;18.944;2022-12-29T20:41:31;17.35;;;9.88;;
63534;SDS011;55128;50.230;18.944;2022-12-29T20:46:32;18.38;;;10.20;;
63534;SDS011;55128;50.230;18.944;2022-12-29T20:51:33;19.23;;;11.60;;
63534;SDS011;55128;50.230;18.944;2022-12-29T20:56:33;28.33;;;15.03;;
63534;SDS011;55128;50.230;18.944;2022-12-29T21:01:34;16.73;;;10.37;;
63534;SDS011;55128;50.230;18.944;2022-12-29T21:06:36;17.30;;;11.32;;
63534;SDS011;55128;50.230;18.944;2022-12-29T21:11:36;18.58;;;10.88;;
63534;SDS011;55128;50.230;18.944;2022-12-29T21:16:37;19.97;;;11.97;;
63534;SDS011;55128;50.230;18.944;2022-12-29T21:21:37;21.55;;;12.30;;
63534;SDS011;55128;50.230;18.944;2022-12-29T21:26:37;22.93;;;12.27;;
63534;SDS011;55128;50.230;18.944;2022-12-29T21:31:38;17.77;;;11.17;;
63534;SDS011;55128;50.230;18.944;2022-12-29T21:36:38;20.73;;;12.70;;
63534;SDS011;55128;50.230;18.944;2022-12-29T21:41:39;23.02;;;12.98;;
63534;SDS011;55128;50.230;18.944;2022-12-29T21:46:39;22.95;;;12.52;;
63534;SDS011;55128;50.230;18.944;2022-12-29T21:51:42;20.40;;;11.90;;
63534;SDS011;55128;50.230;18.944;2022-12-29T21:56:49;18.23;;;10.23;;
63534;SDS011;55128;50.230;18.944;2022-12-29T22:01:50;18.15;;;11.15;;
63534;SDS011;55128;50.230;18.944;2022-12-29T22:07:10;17.55;;;11.15;;
63534;SDS011;55128;50.230;18.944;2022-12-29T22:12:30;17.65;;;11.38;;
63534;SDS011;55128;50.230;18.944;2022-12-29T22:17:51;17.98;;;11.13;;
63534;SDS011;55128;50.230;18.944;2022-12-29T22:22:52;18.70;;;10.48;;
63534;SDS011;55128;50.230;18.944;2022-12-29T22:27:53;18.25;;;11.52;;
63534;SDS011;55128;50.230;18.944;2022-12-29T22:32:53;16.77;;;10.50;;
63534;SDS011;55128;50.230;18.944;2022-12-29T22:37:56;17.42;;;11.70;;
63534;SDS011;55128;50.230;18.944;2022-12-29T22:42:56;16.70;;;10.93;;
63534;SDS011;55128;50.230;18.944;2022-12-29T22:47:56;18.42;;;11.50;;
63534;SDS011;55128;50.230;18.944;2022-12-29T22:52:57;15.98;;;10.52;;
63534;SDS011;55128;50.230;18.944;2022-12-29T22:57:57;22.30;;;12.60;;
63534;SDS011;55128;50.230;18.944;2022-12-29T23:02:58;19.33;;;12.38;;
63534;SDS011;55128;50.230;18.944;2022-12-29T23:07:58;20.23;;;13.20;;
63534;SDS011;55128;50.230;18.944;2022-12-29T23:12:59;35.60;;;20.90;;
63534;SDS011;55128;50.230;18.944;2022-12-29T23:17:59;21.60;;;12.73;;
63534;SDS011;55128;50.230;18.944;2022-12-29T23:23:00;21.93;;;12.53;;
63534;SDS011;55128;50.230;18.944;2022-12-29T23:28:00;21.87;;;13.67;;
63534;SDS011;55128;50.230;18.944;2022-12-29T23:33:00;21.25;;;12.13;;
63534;SDS011;55128;50.230;18.944;2022-12-29T23:38:01;29.05;;;13.70;;
63534;SDS011;55128;50.230;18.944;2022-12-29T23:43:01;21.50;;;11.88;;
63534;SDS011;55128;50.230;18.944;2022-12-29T23:48:02;18.60;;;11.75;;
63534;SDS011;55128;50.230;18.944;2022-12-29T23:53:02;21.92;;;11.98;;
63534;SDS011;55128;50.230;18.944;2022-12-29T23:58:03;19.30;;;11.10;;
